Time;durP1;ratioP1;P1;durP2;ratioP2;P2;SDS_P1;SDS_P2;PMS_P1;PMS_P2;Temp;Humidity;BMP_temperature;BMP_pressure;BME280_temperature;BME280_humidity;BME280_pressure;Samples;Min_cycle;Max_cycle;Signal;HPM_P1;HPM_P2
2023/03/16 00:04:14;;;;;;;;;;;20.90;49.70;;;;;;4857483;55;20116;-35
2023/03/16 00:09:16;;;;;;;;;;;20.90;49.70;;;;;;4848938;55;20219;-35
2023/03/16 00:14:16;;;;;;;;;;;20.90;49.60;;;;;;4939036;55;20334;-34
2023/03/16 00:19:17;;;;;;;;;;;20.90;49.60;;;;;;4751721;58;20095;-34
2023/03/16 00:24:18;;;;;;;;;;;20.80;49.50;;;;;;4843275;55;20343;-33
2023/03/16 00:29:21;;;;;;;;;;;20.90;49.60;;;;;;4754093;55;20068;-34
2023/03/16 00:34:22;;;;;;;;;;;20.90;49.50;;;;;;4752017;58;20303;-34
2023/03/16 00:39:22;;;;;;;;;;;20.80;49.50;;;;;;4787514;55;20060;-34
2023/03/16 00:44:23;;;;;;;;;;;20.80;49.40;;;;;;4751248;58;20302;-35
2023/03/16 00:49:24;;;;;;;;;;;20.80;49.30;;;;;;4768798;55;20237;-33
2023/03/16 00:54:25;;;;;;;;;;;20.80;49.30;;;;;;4897669;55;20302;-32
2023/03/16 00:59:27;;;;;;;;;;;20.80;49.20;;;;;;4821132;54;20307;-33
2023/03/16 01:04:28;;;;;;;;;;;20.80;49.10;;;;;;4817375;55;20067;-35
2023/03/16 01:09:28;;;;;;;;;;;20.80;49.30;;;;;;4972023;55;20117;-33
2023/03/16 01:14:29;;;;;;;;;;;20.80;49.20;;;;;;4938239;55;20101;-33
2023/03/16 01:19:33;;;;;;;;;;;20.80;49.10;;;;;;4751738;55;20159;-34
2023/03/16 01:24:34;;;;;;;;;;;20.80;49.10;;;;;;4844706;55;20286;-34
2023/03/16 01:29:35;;;;;;;;;;;20.80;49.00;;;;;;4751455;58;20120;-34
2023/03/16 01:34:36;;;;;;;;;;;20.80;49.10;;;;;;5187423;55;20343;-34
2023/03/16 01:39:36;;;;;;;;;;;20.80;48.90;;;;;;4801466;55;20073;-33
2023/03/16 01:44:55;;;;;;;;;;;20.80;49.00;;;;;;4811456;55;20069;-35
2023/03/16 01:49:56;;;;;;;;;;;20.80;48.90;;;;;;4751630;58;20104;-34
2023/03/16 01:55:02;;;;;;;;;;;20.80;48.90;;;;;;4796892;55;20077;-35
2023/03/16 02:00:17;;;;;;;;;;;20.80;48.80;;;;;;4770831;55;20109;-31
2023/03/16 02:05:23;;;;;;;;;;;20.80;48.80;;;;;;4777820;55;20294;-34
2023/03/16 02:10:25;;;;;;;;;;;20.80;48.90;;;;;;4752016;55;20104;-34
2023/03/16 02:15:26;;;;;;;;;;;20.80;48.80;;;;;;4834233;55;20343;-34
2023/03/16 02:21:06;;;;;;;;;;;20.80;48.70;;;;;;4830536;55;20283;-38
2023/03/16 02:26:13;;;;;;;;;;;20.80;48.80;;;;;;4758543;55;20291;-35
2023/03/16 02:31:17;;;;;;;;;;;20.80;48.70;;;;;;4838058;55;20063;-33
2023/03/16 02:36:18;;;;;;;;;;;20.80;48.60;;;;;;4811392;55;20068;-34
2023/03/16 02:41:19;;;;;;;;;;;20.80;48.50;;;;;;4751677;58;20057;-35
2023/03/16 02:46:22;;;;;;;;;;;20.80;48.70;;;;;;4798937;55;20148;-34
2023/03/16 02:51:22;;;;;;;;;;;20.80;48.40;;;;;;4816969;55;20084;-33
2023/03/16 02:56:23;;;;;;;;;;;20.80;48.50;;;;;;5034509;55;20056;-35
2023/03/16 03:01:24;;;;;;;;;;;20.80;48.50;;;;;;4811308;55;20064;-36
2023/03/16 03:06:24;;;;;;;;;;;20.80;48.40;;;;;;4764215;55;20152;-34
2023/03/16 03:11:25;;;;;;;;;;;20.80;48.40;;;;;;4996372;55;20104;-33
2023/03/16 03:16:26;;;;;;;;;;;20.80;48.40;;;;;;4938467;55;20295;-33
2023/03/16 03:21:27;;;;;;;;;;;20.80;48.20;;;;;;4862034;55;20065;-33
2023/03/16 03:26:28;;;;;;;;;;;20.80;48.40;;;;;;4795513;55;20278;-35
2023/03/16 03:31:28;;;;;;;;;;;20.80;48.40;;;;;;4794592;55;20089;-29
2023/03/16 03:36:29;;;;;;;;;;;20.80;48.30;;;;;;4873824;55;20056;-34
2023/03/16 03:41:31;;;;;;;;;;;20.70;48.10;;;;;;4844575;55;20373;-32
2023/03/16 03:46:32;;;;;;;;;;;20.80;48.10;;;;;;4771717;55;20295;-32
2023/03/16 03:51:33;;;;;;;;;;;20.70;48.00;;;;;;4751671;58;20113;-33
2023/03/16 03:56:33;;;;;;;;;;;20.70;48.00;;;;;;4817751;55;20375;-32
2023/03/16 04:01:34;;;;;;;;;;;20.70;48.00;;;;;;4820931;55;20068;-29
2023/03/16 04:06:34;;;;;;;;;;;20.70;48.10;;;;;;4774420;55;20120;-29
2023/03/16 04:11:35;;;;;;;;;;;20.70;48.30;;;;;;4890840;55;20299;-31
2023/03/16 04:16:36;;;;;;;;;;;20.70;48.60;;;;;;5073707;55;20063;-34
2023/03/16 04:21:37;;;;;;;;;;;20.70;48.10;;;;;;4766405;55;20790;-34
2023/03/16 04:26:37;;;;;;;;;;;20.70;48.10;;;;;;4939796;55;20108;-34
2023/03/16 04:31:38;;;;;;;;;;;20.70;48.10;;;;;;4981213;55;20108;-33
2023/03/16 04:36:39;;;;;;;;;;;20.70;48.20;;;;;;4751719;55;20072;-32
2023/03/16 04:41:39;;;;;;;;;;;20.70;48.70;;;;;;4760064;55;20340;-32
2023/03/16 04:46:40;;;;;;;;;;;20.70;48.40;;;;;;4840556;55;20097;-30
2023/03/16 04:51:41;;;;;;;;;;;20.80;48.60;;;;;;5097622;55;20068;-31
2023/03/16 04:56:42;;;;;;;;;;;20.70;48.60;;;;;;4771770;55;20331;-33
2023/03/16 05:01:43;;;;;;;;;;;20.70;48.60;;;;;;4899731;55;20307;-34
2023/03/16 05:06:44;;;;;;;;;;;20.70;48.60;;;;;;4784726;55;20220;-36
2023/03/16 05:11:45;;;;;;;;;;;20.70;49.10;;;;;;4781750;55;20172;-35
2023/03/16 05:16:45;;;;;;;;;;;20.70;48.60;;;;;;4798927;55;20068;-34
2023/03/16 05:21:46;;;;;;;;;;;20.70;48.60;;;;;;4864821;55;20061;-31
2023/03/16 05:26:46;;;;;;;;;;;20.70;48.70;;;;;;4751588;58;20060;-35
2023/03/16 05:31:47;;;;;;;;;;;20.70;48.60;;;;;;4941710;55;20068;-36
2023/03/16 05:36:48;;;;;;;;;;;20.70;49.20;;;;;;4812886;55;20101;-35
2023/03/16 05:41:48;;;;;;;;;;;20.70;48.60;;;;;;4809398;55;20117;-34
2023/03/16 05:46:49;;;;;;;;;;;20.70;48.60;;;;;;4763942;55;20068;-36
2023/03/16 05:51:50;;;;;;;;;;;20.70;48.50;;;;;;4786296;55;20359;-35
2023/03/16 05:56:51;;;;;;;;;;;20.70;48.50;;;;;;4789408;55;20056;-36
2023/03/16 06:01:51;;;;;;;;;;;20.70;48.60;;;;;;4844616;55;20299;-38
2023/03/16 06:06:52;;;;;;;;;;;20.70;48.40;;;;;;4884870;55;20065;-32
2023/03/16 06:11:53;;;;;;;;;;;20.70;48.50;;;;;;4838089;55;20057;-32
2023/03/16 06:16:53;;;;;;;;;;;20.70;48.50;;;;;;4785458;55;20120;-34
2023/03/16 06:21:54;;;;;;;;;;;20.70;48.60;;;;;;4789220;55;20076;-35
2023/03/16 06:26:54;;;;;;;;;;;20.70;48.40;;;;;;4830806;55;20073;-33
2023/03/16 06:31:55;;;;;;;;;;;20.70;48.40;;;;;;4751934;58;20068;-34
2023/03/16 06:36:56;;;;;;;;;;;20.70;48.40;;;;;;4846229;55;20315;-33
2023/03/16 06:41:57;;;;;;;;;;;20.70;48.40;;;;;;4822321;55;20065;-33
2023/03/16 06:46:58;;;;;;;;;;;20.70;48.40;;;;;;4864322;55;20282;-31
2023/03/16 06:51:59;;;;;;;;;;;20.70;48.30;;;;;;4752011;58;20176;-34
2023/03/16 06:57:00;;;;;;;;;;;20.70;48.40;;;;;;4936622;55;20312;-34
2023/03/16 07:02:01;;;;;;;;;;;20.70;47.80;;;;;;4967920;55;20065;-34
2023/03/16 07:07:01;;;;;;;;;;;20.70;47.80;;;;;;4918234;55;20052;-35
2023/03/16 07:12:02;;;;;;;;;;;20.70;48.00;;;;;;5026223;55;20287;-33
2023/03/16 07:17:03;;;;;;;;;;;20.70;47.80;;;;;;4916936;55;20083;-34
2023/03/16 07:22:03;;;;;;;;;;;20.70;47.70;;;;;;4888448;55;20108;-34
2023/03/16 07:27:04;;;;;;;;;;;20.70;47.80;;;;;;4751695;58;20107;-35
2023/03/16 07:32:05;;;;;;;;;;;20.70;47.80;;;;;;4795395;55;20068;-35
2023/03/16 07:37:07;;;;;;;;;;;20.70;47.80;;;;;;4888534;55;20121;-32
2023/03/16 07:42:08;;;;;;;;;;;20.70;47.80;;;;;;4832404;55;20294;-35
2023/03/16 07:47:11;;;;;;;;;;;20.70;47.80;;;;;;4782648;55;20105;-35
2023/03/16 07:52:12;;;;;;;;;;;20.70;47.90;;;;;;4771805;55;20067;-34
2023/03/16 07:57:13;;;;;;;;;;;20.70;47.80;;;;;;4992608;55;20283;-34
2023/03/16 08:02:15;;;;;;;;;;;20.70;47.90;;;;;;4751312;58;20281;-35
2023/03/16 08:07:15;;;;;;;;;;;20.70;47.90;;;;;;4768719;55;20067;-26
2023/03/16 08:12:16;;;;;;;;;;;20.70;47.50;;;;;;4749202;58;20190;-28
2023/03/16 08:17:17;;;;;;;;;;;20.70;48.10;;;;;;4751635;58;20061;-29
2023/03/16 08:22:18;;;;;;;;;;;20.80;48.40;;;;;;4751125;55;20072;-30
2023/03/16 08:27:19;;;;;;;;;;;20.80;49.30;;;;;;4853105;55;20068;-31
2023/03/16 08:32:20;;;;;;;;;;;20.90;49.30;;;;;;4839216;55;20282;-31
2023/03/16 08:37:20;;;;;;;;;;;20.90;49.40;;;;;;4747456;58;20081;-28
2023/03/16 08:42:22;;;;;;;;;;;20.90;49.50;;;;;;4762475;55;20108;-26
2023/03/16 08:47:23;;;;;;;;;;;20.90;50.20;;;;;;4750949;55;20331;-28
2023/03/16 08:52:24;;;;;;;;;;;21.00;49.80;;;;;;4768527;55;20292;-28
2023/03/16 08:57:26;;;;;;;;;;;21.00;49.80;;;;;;4862743;55;20076;-28
2023/03/16 09:02:26;;;;;;;;;;;21.00;49.30;;;;;;4796085;55;20302;-29
2023/03/16 09:07:28;;;;;;;;;;;21.00;49.50;;;;;;4811185;55;20064;-29
2023/03/16 09:12:28;;;;;;;;;;;21.00;49.50;;;;;;4814333;55;20353;-29
2023/03/16 09:17:29;;;;;;;;;;;21.00;49.70;;;;;;4808155;55;20101;-30
2023/03/16 09:22:30;;;;;;;;;;;21.00;49.80;;;;;;4791805;55;20271;-27
2023/03/16 09:27:31;;;;;;;;;;;21.00;49.90;;;;;;4751553;58;20104;-30
2023/03/16 09:32:32;;;;;;;;;;;21.00;50.00;;;;;;4930007;55;20052;-31
2023/03/16 09:37:33;;;;;;;;;;;21.10;50.10;;;;;;4829058;55;20330;-33
2023/03/16 09:42:38;;;;;;;;;;;21.10;50.20;;;;;;4791302;55;20108;-30
2023/03/16 09:47:39;;;;;;;;;;;21.10;50.20;;;;;;4826037;55;20371;-33
2023/03/16 09:52:47;;;;;;;;;;;21.10;50.10;;;;;;4775023;55;20100;-33
2023/03/16 09:57:49;;;;;;;;;;;21.10;50.00;;;;;;4816200;55;20410;-31
2023/03/16 10:03:08;;;;;;;;;;;21.10;49.90;;;;;;4806261;55;20120;-32
2023/03/16 10:08:21;;;;;;;;;;;21.10;49.90;;;;;;4751370;55;20056;-34
2023/03/16 10:16:53;;;;;;;;;;;21.10;49.70;;;;;;4834892;55;20374;-33
2023/03/16 10:21:57;;;;;;;;;;;21.10;49.70;;;;;;4762933;55;20355;-32
2023/03/16 10:27:01;;;;;;;;;;;21.10;49.80;;;;;;4778668;55;20286;-34
2023/03/16 10:32:11;;;;;;;;;;;21.10;49.90;;;;;;4835186;55;20124;-33
2023/03/16 10:37:12;;;;;;;;;;;21.10;50.00;;;;;;4932205;55;20060;-32
2023/03/16 10:42:15;;;;;;;;;;;21.10;50.10;;;;;;4751906;58;20128;-30
2023/03/16 10:47:17;;;;;;;;;;;21.10;50.10;;;;;;4997636;55;20353;-26
2023/03/16 10:52:42;;;;;;;;;;;21.10;50.10;;;;;;4775383;55;20164;-32
2023/03/16 10:57:47;;;;;;;;;;;21.10;50.30;;;;;;4812876;55;20100;-32
2023/03/16 11:02:48;;;;;;;;;;;21.20;50.70;;;;;;4825489;55;20287;-29
2023/03/16 11:07:50;;;;;;;;;;;21.20;50.90;;;;;;4791617;55;20116;-34
2023/03/16 11:12:51;;;;;;;;;;;21.20;51.30;;;;;;4754739;55;20061;-30
2023/03/16 11:17:54;;;;;;;;;;;21.20;51.30;;;;;;4852785;55;20120;-27
2023/03/16 11:22:56;;;;;;;;;;;21.30;51.70;;;;;;4749655;58;20314;-31
2023/03/16 11:29:23;;;;;;;;;;;21.30;52.00;;;;;;4766448;55;20294;-31
2023/03/16 11:34:27;;;;;;;;;;;21.30;52.00;;;;;;4906824;55;20299;-32
2023/03/16 11:39:39;;;;;;;;;;;21.40;52.30;;;;;;4978831;55;20079;-32
2023/03/16 11:45:00;;;;;;;;;;;21.40;52.40;;;;;;4936333;55;20060;-30
2023/03/16 11:50:26;;;;;;;;;;;21.40;52.40;;;;;;4906362;55;20437;-28
2023/03/16 11:56:18;;;;;;;;;;;21.40;52.60;;;;;;4751294;58;20299;-32
2023/03/16 12:01:34;;;;;;;;;;;21.50;52.70;;;;;;4751915;55;20396;-30
2023/03/16 12:06:56;;;;;;;;;;;21.40;53.00;;;;;;4750622;55;20295;-31
2023/03/16 12:12:00;;;;;;;;;;;21.50;53.10;;;;;;4766094;55;20291;-27
2023/03/16 12:17:08;;;;;;;;;;;21.50;53.20;;;;;;5129112;55;20124;-31
2023/03/16 12:22:23;;;;;;;;;;;21.50;53.20;;;;;;4762023;55;20407;-31
2023/03/16 12:27:30;;;;;;;;;;;21.50;54.00;;;;;;4873154;55;20065;-27
2023/03/16 12:32:52;;;;;;;;;;;21.60;53.50;;;;;;4790535;55;20122;-28
2023/03/16 12:37:58;;;;;;;;;;;21.60;53.70;;;;;;5004959;55;20310;-32
2023/03/16 12:43:13;;;;;;;;;;;21.60;53.90;;;;;;4832410;55;20096;-31
2023/03/16 12:48:19;;;;;;;;;;;21.60;53.90;;;;;;4775092;55;20379;-29
2023/03/16 12:53:39;;;;;;;;;;;21.60;54.20;;;;;;4751535;58;20339;-29
2023/03/16 12:58:45;;;;;;;;;;;21.60;54.20;;;;;;4772370;55;20068;-33
2023/03/16 13:03:48;;;;;;;;;;;21.60;54.20;;;;;;4777621;55;20452;-34
2023/03/16 13:08:55;;;;;;;;;;;21.60;53.80;;;;;;4842444;55;20287;-32
2023/03/16 13:14:14;;;;;;;;;;;21.60;53.70;;;;;;4804140;55;20343;-31
2023/03/16 13:19:26;;;;;;;;;;;21.60;53.50;;;;;;4756428;55;20080;-32
2023/03/16 13:24:33;;;;;;;;;;;21.60;52.90;;;;;;4750744;58;20291;-30
2023/03/16 13:29:34;;;;;;;;;;;21.60;51.30;;;;;;4754634;55;20071;-29
2023/03/16 13:34:38;;;;;;;;;;;21.60;51.10;;;;;;4750959;58;20286;-29
2023/03/16 13:39:39;;;;;;;;;;;21.60;51.30;;;;;;4751623;58;20339;-28
2023/03/16 13:44:40;;;;;;;;;;;21.60;51.60;;;;;;4778361;55;20128;-25
2023/03/16 13:49:49;;;;;;;;;;;21.60;51.90;;;;;;4751226;58;20068;-26
2023/03/16 13:54:51;;;;;;;;;;;21.60;52.10;;;;;;4851248;55;20310;-27
2023/03/16 14:00:17;;;;;;;;;;;21.60;52.20;;;;;;4751437;55;20299;-31
2023/03/16 14:05:20;;;;;;;;;;;21.60;52.50;;;;;;5023571;55;20312;-29
2023/03/16 14:10:21;;;;;;;;;;;21.70;52.80;;;;;;4789686;55;20061;-25
2023/03/16 14:15:26;;;;;;;;;;;21.70;52.90;;;;;;4772300;55;20053;-29
2023/03/16 14:20:26;;;;;;;;;;;21.70;53.20;;;;;;4785021;55;20064;-29
2023/03/16 14:25:27;;;;;;;;;;;21.70;53.30;;;;;;4825981;55;20124;-29
2023/03/16 14:30:29;;;;;;;;;;;21.70;53.40;;;;;;4939371;55;20294;-29
2023/03/16 14:35:31;;;;;;;;;;;21.70;53.50;;;;;;4751887;58;20307;-26
2023/03/16 14:40:32;;;;;;;;;;;21.70;53.70;;;;;;4790405;55;20072;-31
2023/03/16 14:45:33;;;;;;;;;;;21.70;53.70;;;;;;4750848;58;20303;-28
2023/03/16 14:50:34;;;;;;;;;;;21.70;53.80;;;;;;4785181;55;20116;-26
2023/03/16 14:55:36;;;;;;;;;;;21.70;54.10;;;;;;4884506;55;20310;-28
2023/03/16 15:00:38;;;;;;;;;;;21.70;54.00;;;;;;4780264;55;20310;-29
2023/03/16 15:05:39;;;;;;;;;;;21.80;54.10;;;;;;4873602;55;20321;-29
2023/03/16 15:10:41;;;;;;;;;;;21.80;54.10;;;;;;4777351;55;20112;-27
2023/03/16 15:15:41;;;;;;;;;;;21.80;54.10;;;;;;4751734;58;20108;-35
2023/03/16 15:20:43;;;;;;;;;;;21.70;54.30;;;;;;4751783;58;20060;-35
2023/03/16 15:25:45;;;;;;;;;;;21.70;54.10;;;;;;4749331;55;20061;-36
2023/03/16 15:30:47;;;;;;;;;;;21.60;54.00;;;;;;4751793;58;20332;-32
2023/03/16 15:35:49;;;;;;;;;;;21.60;53.90;;;;;;4889318;55;20085;-32
2023/03/16 15:40:50;;;;;;;;;;;21.50;53.80;;;;;;4759868;55;20108;-33
2023/03/16 15:45:52;;;;;;;;;;;21.50;53.80;;;;;;4758423;55;20319;-28
2023/03/16 15:50:54;;;;;;;;;;;21.50;53.80;;;;;;4750493;55;20306;-33
2023/03/16 15:55:58;;;;;;;;;;;21.50;53.70;;;;;;4840959;55;20068;-33
2023/03/16 16:00:59;;;;;;;;;;;21.40;53.60;;;;;;4858141;55;20395;-32
2023/03/16 16:06:00;;;;;;;;;;;21.40;53.70;;;;;;4822811;55;20116;-32
2023/03/16 16:11:04;;;;;;;;;;;21.40;53.60;;;;;;4853735;55;20820;-32
2023/03/16 16:16:05;;;;;;;;;;;21.40;53.60;;;;;;4819532;55;20343;-32
2023/03/16 16:21:07;;;;;;;;;;;21.30;53.50;;;;;;4751620;58;20072;-34
2023/03/16 16:27:09;;;;;;;;;;;21.30;53.60;;;;;;4750975;58;20317;-35
2023/03/16 16:32:22;;;;;;;;;;;21.30;53.50;;;;;;4752072;55;20244;-33
2023/03/16 16:37:23;;;;;;;;;;;21.30;53.40;;;;;;4819235;55;20291;-36
2023/03/16 16:42:23;;;;;;;;;;;21.30;53.40;;;;;;4751655;58;20140;-36
2023/03/16 16:47:24;;;;;;;;;;;21.20;53.30;;;;;;4751535;58;20080;-35
2023/03/16 16:52:25;;;;;;;;;;;21.20;53.30;;;;;;4759843;55;20299;-35
2023/03/16 16:57:30;;;;;;;;;;;21.20;53.90;;;;;;4796366;55;20279;-35
2023/03/16 17:02:42;;;;;;;;;;;21.20;53.20;;;;;;5014117;55;20291;-35
2023/03/16 17:07:43;;;;;;;;;;;21.20;53.10;;;;;;5084419;55;20108;-34
2023/03/16 17:12:47;;;;;;;;;;;21.20;53.10;;;;;;4751711;58;20077;-36
2023/03/16 17:17:48;;;;;;;;;;;21.20;53.00;;;;;;4773486;55;20068;-36
2023/03/16 17:22:50;;;;;;;;;;;21.20;53.00;;;;;;4873829;55;20402;-34
2023/03/16 17:27:52;;;;;;;;;;;21.20;53.00;;;;;;4870433;55;20295;-35
2023/03/16 17:32:54;;;;;;;;;;;21.20;52.90;;;;;;4753007;55;20291;-34
2023/03/16 17:37:55;;;;;;;;;;;21.20;52.90;;;;;;4751637;58;20346;-34
2023/03/16 17:42:56;;;;;;;;;;;21.20;53.00;;;;;;4894288;55;20291;-36
2023/03/16 17:47:57;;;;;;;;;;;21.10;52.80;;;;;;4990784;55;20068;-34
2023/03/16 17:52:57;;;;;;;;;;;21.10;52.70;;;;;;4891929;55;20073;-34
2023/03/16 17:57:58;;;;;;;;;;;21.20;52.80;;;;;;4824262;55;20104;-32
2023/03/16 18:03:10;;;;;;;;;;;21.10;52.70;;;;;;4868792;55;20311;-36
2023/03/16 18:08:19;;;;;;;;;;;21.10;52.70;;;;;;4837248;55;20130;-35
2023/03/16 18:13:26;;;;;;;;;;;21.10;52.60;;;;;;4751945;58;20287;-34
2023/03/16 18:18:29;;;;;;;;;;;21.10;52.50;;;;;;4794873;55;20303;-36
2023/03/16 18:23:30;;;;;;;;;;;21.10;52.50;;;;;;4774315;55;20120;-34
2023/03/16 18:28:32;;;;;;;;;;;21.10;52.50;;;;;;4869426;55;20160;-36
2023/03/16 18:33:38;;;;;;;;;;;21.10;52.50;;;;;;4785612;55;20060;-35
2023/03/16 18:38:41;;;;;;;;;;;21.10;52.50;;;;;;4752069;55;20307;-35
2023/03/16 18:43:45;;;;;;;;;;;21.10;52.40;;;;;;4801616;55;20283;-36
2023/03/16 18:48:46;;;;;;;;;;;21.10;52.50;;;;;;4866018;55;20302;-35
2023/03/16 18:53:47;;;;;;;;;;;21.10;52.40;;;;;;4751971;58;20069;-36
2023/03/16 18:58:48;;;;;;;;;;;21.10;52.40;;;;;;4768453;54;20267;-34
2023/03/16 19:03:50;;;;;;;;;;;21.10;52.40;;;;;;4937271;55;20065;-34
2023/03/16 19:08:51;;;;;;;;;;;21.10;52.30;;;;;;4808350;55;20271;-35
2023/03/16 19:13:52;;;;;;;;;;;21.10;52.40;;;;;;4788036;55;20060;-35
2023/03/16 19:18:52;;;;;;;;;;;21.10;52.40;;;;;;4752143;55;20116;-37
2023/03/16 19:23:55;;;;;;;;;;;21.10;52.30;;;;;;4751122;58;20053;-32
2023/03/16 19:28:56;;;;;;;;;;;21.10;53.00;;;;;;4780522;55;20068;-32
2023/03/16 19:33:57;;;;;;;;;;;21.00;52.20;;;;;;4893185;55;20057;-35
2023/03/16 19:38:58;;;;;;;;;;;21.10;52.20;;;;;;4752025;58;20298;-35
2023/03/16 19:44:16;;;;;;;;;;;21.00;52.20;;;;;;5097165;55;20126;-36
2023/03/16 19:49:18;;;;;;;;;;;21.00;52.10;;;;;;4751867;58;20294;-34
2023/03/16 19:54:23;;;;;;;;;;;21.00;52.10;;;;;;4876421;55;20370;-33
2023/03/16 19:59:27;;;;;;;;;;;21.00;52.10;;;;;;4865220;55;20133;-32
2023/03/16 20:04:28;;;;;;;;;;;21.00;52.00;;;;;;4751024;58;20299;-33
2023/03/16 20:09:28;;;;;;;;;;;21.00;52.00;;;;;;4809131;55;20120;-36
2023/03/16 20:14:30;;;;;;;;;;;21.00;52.00;;;;;;4791859;55;20069;-36
2023/03/16 20:19:31;;;;;;;;;;;21.00;51.90;;;;;;4763633;55;20156;-35
2023/03/16 20:24:32;;;;;;;;;;;21.00;52.00;;;;;;4751424;58;20303;-32
2023/03/16 20:29:32;;;;;;;;;;;21.00;51.90;;;;;;4753221;55;20067;-37
2023/03/16 20:34:33;;;;;;;;;;;21.00;51.90;;;;;;4960639;55;20116;-37
2023/03/16 20:39:37;;;;;;;;;;;21.00;51.80;;;;;;4883836;55;20076;-34
2023/03/16 20:44:38;;;;;;;;;;;21.00;51.80;;;;;;5072982;55;20378;-33
2023/03/16 20:49:38;;;;;;;;;;;21.00;51.80;;;;;;4751653;58;20121;-32
2023/03/16 20:54:39;;;;;;;;;;;21.00;52.50;;;;;;4859465;55;20347;-34
2023/03/16 20:59:40;;;;;;;;;;;21.00;51.70;;;;;;4763177;55;20125;-36
2023/03/16 21:04:41;;;;;;;;;;;21.00;51.80;;;;;;4805230;55;20068;-34
2023/03/16 21:09:42;;;;;;;;;;;21.00;51.70;;;;;;4818064;55;20335;-34
2023/03/16 21:14:42;;;;;;;;;;;21.00;52.30;;;;;;4770939;55;20115;-33
2023/03/16 21:19:43;;;;;;;;;;;21.00;51.70;;;;;;4931376;55;20349;-35
2023/03/16 21:24:44;;;;;;;;;;;21.00;51.60;;;;;;4783459;55;20092;-36
2023/03/16 21:29:46;;;;;;;;;;;20.90;51.50;;;;;;4751797;58;20307;-34
2023/03/16 21:34:47;;;;;;;;;;;20.90;51.40;;;;;;4802887;55;20354;-34
2023/03/16 21:39:48;;;;;;;;;;;20.90;51.40;;;;;;4887677;55;20067;-34
2023/03/16 21:44:48;;;;;;;;;;;20.90;51.40;;;;;;4824533;55;20072;-34
2023/03/16 21:49:49;;;;;;;;;;;20.90;51.30;;;;;;5051301;55;20112;-34
2023/03/16 21:54:51;;;;;;;;;;;20.90;51.30;;;;;;4790465;55;20149;-30
2023/03/16 21:59:51;;;;;;;;;;;20.90;51.30;;;;;;4839642;55;20164;-35
2023/03/16 22:04:59;;;;;;;;;;;20.90;51.40;;;;;;4920289;55;20076;-32
2023/03/16 22:10:01;;;;;;;;;;;20.90;51.40;;;;;;4797683;55;20363;-34
2023/03/16 22:15:02;;;;;;;;;;;20.90;51.30;;;;;;4751578;55;20463;-34
2023/03/16 22:20:12;;;;;;;;;;;20.90;51.10;;;;;;4762091;55;20067;-34
2023/03/16 22:25:14;;;;;;;;;;;20.90;51.10;;;;;;4875695;55;20048;-35
2023/03/16 22:30:22;;;;;;;;;;;20.90;51.00;;;;;;4823499;55;20291;-32
2023/03/16 22:35:31;;;;;;;;;;;20.90;51.10;;;;;;4833843;55;20057;-34
2023/03/16 22:40:36;;;;;;;;;;;20.90;51.00;;;;;;4836140;55;20060;-34
2023/03/16 22:45:36;;;;;;;;;;;20.90;51.00;;;;;;4827534;55;20079;-34
2023/03/16 22:50:37;;;;;;;;;;;20.90;50.90;;;;;;5051681;55;20363;-33
2023/03/16 22:55:38;;;;;;;;;;;20.90;50.90;;;;;;4858684;55;20071;-32
2023/03/16 23:00:39;;;;;;;;;;;20.90;51.00;;;;;;4775647;55;20065;-34
2023/03/16 23:05:40;;;;;;;;;;;20.90;50.80;;;;;;4886601;55;20279;-33
2023/03/16 23:10:41;;;;;;;;;;;20.90;50.90;;;;;;4752103;58;20057;-33
2023/03/16 23:15:43;;;;;;;;;;;20.90;50.80;;;;;;4794796;55;20161;-35
2023/03/16 23:20:43;;;;;;;;;;;20.90;50.90;;;;;;4813878;55;20235;-34
2023/03/16 23:25:45;;;;;;;;;;;20.90;50.70;;;;;;4789348;55;20314;-33
2023/03/16 23:30:46;;;;;;;;;;;20.90;50.60;;;;;;4960117;55;20104;-31
2023/03/16 23:35:46;;;;;;;;;;;20.80;50.50;;;;;;4838276;55;20101;-34
2023/03/16 23:40:48;;;;;;;;;;;20.90;50.80;;;;;;4758723;55;20160;-33
2023/03/16 23:45:48;;;;;;;;;;;20.80;50.50;;;;;;4859687;55;20354;-33
2023/03/16 23:50:52;;;;;;;;;;;20.80;50.50;;;;;;5034826;55;20056;-35
2023/03/16 23:55:52;;;;;;;;;;;20.80;50.50;;;;;;4834853;55;20065;-34
